createdAt,value
2022-12-11T04:33:35.865Z,95261.13
2022-12-11T04:38:37.621Z,95261.13
2022-12-11T04:43:39.387Z,95264.95
2022-12-11T04:48:41.612Z,95264.95
2022-12-11T04:53:43.366Z,95283.91
2022-12-11T04:58:45.851Z,95283.91
2022-12-11T05:03:47.847Z,95293.61
2022-12-11T05:08:50.031Z,95293.61
2022-12-11T05:13:51.868Z,95310.72
2022-12-11T05:18:54.125Z,95330.14
2022-12-11T05:23:55.904Z,95330.14
2022-12-11T05:28:57.820Z,95331.14
2022-12-11T05:33:59.613Z,95331.14
2022-12-11T05:39:01.884Z,95329.95
2022-12-11T05:44:03.921Z,95329.95
2022-12-11T05:49:06.110Z,95331.63
2022-12-11T05:54:08.676Z,95331.63
2022-12-11T05:59:10.540Z,95330.23
2022-12-11T06:04:12.828Z,95330.23
2022-12-11T06:09:15.956Z,95340.74
2022-12-11T06:14:17.786Z,95342.55
2022-12-11T06:19:19.584Z,95342.55
2022-12-11T06:24:21.652Z,95366.41
2022-12-11T06:29:23.409Z,95366.41
2022-12-11T06:34:25.442Z,95371.17
2022-12-11T06:39:27.356Z,95371.17
2022-12-11T06:44:29.157Z,95373.84
2022-12-11T06:49:31.054Z,95373.84
2022-12-11T06:54:32.958Z,95366.61
2022-12-11T06:59:34.846Z,95366.61
2022-12-11T07:04:36.880Z,95395.55
2022-12-11T07:09:40.577Z,95403.27
2022-12-11T07:14:42.466Z,95403.27
2022-12-11T07:19:44.323Z,95425.25
2022-12-11T07:24:46.167Z,95425.25
2022-12-11T07:29:47.988Z,95434.42
2022-12-11T07:34:52.848Z,95434.42
2022-12-11T07:39:54.918Z,95463.47
2022-12-11T07:44:56.836Z,95463.47
2022-12-11T07:49:58.632Z,95471.64
2022-12-11T07:55:00.518Z,95471.64
2022-12-11T08:00:02.834Z,95471
2022-12-11T08:05:04.911Z,95479.7
2022-12-11T08:10:07.152Z,95479.7
2022-12-11T08:15:10.687Z,95480.88
2022-12-11T08:20:13.199Z,95480.88
2022-12-11T08:25:14.964Z,95496.53
2022-12-11T08:30:17.089Z,95496.53
2022-12-11T08:35:18.869Z,95524.35
2022-12-11T08:40:20.603Z,95524.35
2022-12-11T08:45:22.593Z,95546.18
2022-12-11T08:50:24.458Z,95546.18
2022-12-11T08:55:26.230Z,95555.17
2022-12-11T09:00:28.081Z,95559.86
2022-12-11T09:05:29.810Z,95559.86
2022-12-11T09:10:31.577Z,95580.44
2022-12-11T09:15:33.477Z,95580.44
2022-12-11T09:20:35.387Z,95577.72
2022-12-11T09:25:39.438Z,95577.72
2022-12-11T09:30:41.401Z,95586.98
2022-12-11T09:35:43.313Z,95586.98
2022-12-11T09:40:45.136Z,95595.25
2022-12-11T09:45:48.090Z,95594.11
2022-12-11T09:50:51.411Z,95594.11
2022-12-11T09:55:55.820Z,95612.59
2022-12-11T10:01:01.544Z,95612.59
2022-12-11T10:06:07.947Z,95603.73
2022-12-11T10:21:26.674Z,95589.59
2022-12-11T10:26:29.275Z,95589.59
2022-12-11T10:31:35.323Z,95609.07
2022-12-11T10:36:39.080Z,95609.07
2022-12-11T10:41:42.700Z,95600.72
2022-12-11T10:46:44.612Z,95600.72
2022-12-11T10:51:46.550Z,95621.86
2022-12-11T10:56:49.024Z,95621.86
2022-12-11T11:01:51.503Z,95637.38
2022-12-11T11:17:13.711Z,95645.28
2022-12-11T11:22:16.815Z,95645.28
2022-12-11T11:27:24.414Z,95642.55
2022-12-11T11:32:30.316Z,95642.55
2022-12-11T11:37:33.282Z,95628.48
2022-12-11T11:42:40.931Z,95628.48
2022-12-11T11:52:51.469Z,95639.86
2022-12-11T11:57:56.188Z,95639.86
2022-12-11T12:03:00.636Z,95656.52
2022-12-11T12:18:24.243Z,95672.49
2022-12-11T12:28:39.917Z,95671.44
2022-12-11T12:38:53.061Z,95694.75
2022-12-11T12:44:05.331Z,95694.75
2022-12-11T12:49:10.748Z,95679.15
2022-12-11T12:54:15.552Z,95679.15
2022-12-11T12:59:19.763Z,95674.77
2022-12-11T13:09:34.190Z,95700.28
2022-12-11T13:14:36.289Z,95700.28
2022-12-11T13:19:43.362Z,95709.61
2022-12-11T13:24:45.770Z,95728.88
2022-12-11T13:29:47.852Z,95728.88
2022-12-11T13:34:52.469Z,95743.31
2022-12-11T13:39:54.631Z,95743.31
2022-12-11T13:44:56.879Z,95754.49
2022-12-11T13:50:02.638Z,95754.49
2022-12-11T14:05:16.813Z,95778.3
2022-12-11T14:10:20.686Z,95778.3
2022-12-11T14:15:23.143Z,95797.28
2022-12-11T14:20:27.241Z,95800.61
2022-12-11T14:25:29.701Z,95800.61
2022-12-11T14:30:32.797Z,95813.13
2022-12-11T14:35:39.943Z,95813.13
2022-12-11T14:40:43.326Z,95836.73
2022-12-11T14:45:48.956Z,95836.73
2022-12-11T14:50:51.939Z,95845.71
2022-12-11T14:55:55.374Z,95845.71
2022-12-11T15:00:58.872Z,95855.64
2022-12-11T15:06:01.789Z,95848.36
2022-12-11T15:11:06.784Z,95848.36
2022-12-11T15:16:08.927Z,95865.8
2022-12-11T15:21:12.727Z,95865.8
2022-12-11T15:26:14.682Z,95884.22
2022-12-11T15:31:24.953Z,95884.22
2022-12-11T15:36:31.148Z,95880.06
2022-12-11T15:41:33.372Z,95880.06
2022-12-11T15:46:37.901Z,95888.38
2022-12-11T15:51:44.092Z,95888.38
2022-12-11T15:56:46.378Z,95885.08
2022-12-11T16:01:49.525Z,95906.59
2022-12-11T16:06:52.411Z,95906.59
2022-12-11T16:11:55.327Z,95908.69
2022-12-11T16:16:57.822Z,95908.69
2022-12-11T16:22:01.373Z,95926.5
2022-12-11T16:27:04.186Z,95926.5
2022-12-11T16:32:07.722Z,95933.5
2022-12-11T16:37:11.027Z,95933.5
2022-12-11T16:42:13.755Z,95925.95
2022-12-11T16:47:16.025Z,95936.59
2022-12-11T16:52:24.584Z,95936.59
2022-12-11T16:57:27.116Z,95926.16
2022-12-11T17:02:29.500Z,95926.16
2022-12-11T17:07:31.938Z,95943.71
2022-12-11T17:12:34.252Z,95943.71
2022-12-11T17:17:36.712Z,95931.28
2022-12-11T17:22:39.095Z,95931.28
2022-12-11T17:27:41.692Z,95934.64
2022-12-11T17:32:49.406Z,95934.64
2022-12-11T17:37:52.746Z,95941.75
2022-12-11T17:42:56.138Z,95942.5
2022-12-11T17:47:58.304Z,95942.5
2022-12-11T17:53:01.192Z,95945.08
2022-12-11T17:58:03.603Z,95945.08
2022-12-11T18:03:06.137Z,95952.17
2022-12-11T18:08:11.069Z,95952.17
2022-12-11T18:13:13.746Z,95965.42
2022-12-11T18:18:16.479Z,95965.42
2022-12-11T18:23:19.264Z,95954.72
2022-12-11T18:28:21.871Z,95948.66
2022-12-11T18:33:25.084Z,95948.66
2022-12-11T18:38:27.429Z,95959.55
2022-12-11T18:43:31.150Z,95959.55
2022-12-11T18:48:36.145Z,95959.08
2022-12-11T18:53:39.508Z,95959.08
2022-12-11T18:58:44.779Z,95966.98
2022-12-11T19:03:48.938Z,95966.98
2022-12-11T19:08:51.927Z,95991.39
2022-12-11T19:13:55.939Z,95991.39
2022-12-11T19:18:59.279Z,95993.87
2022-12-11T19:24:03.713Z,96000.22
2022-12-11T19:29:07.028Z,96000.22
2022-12-11T19:34:12.273Z,96002.73
2022-12-11T19:39:17.121Z,96002.73
2022-12-11T19:44:21.735Z,95996.94
2022-12-11T19:49:26.155Z,95996.94
2022-12-11T19:54:29.277Z,95988
2022-12-11T19:59:33.672Z,95988
2022-12-11T20:04:36.890Z,95985.56
2022-12-11T20:09:40.472Z,95985.97
2022-12-11T20:14:43.517Z,95985.97
2022-12-11T20:19:46.970Z,95995
2022-12-11T20:24:51.856Z,95995
2022-12-11T20:29:54.656Z,96006.31
2022-12-11T20:34:58.087Z,96006.31
2022-12-11T20:40:02.433Z,96011.44
2022-12-11T20:45:06.186Z,96011.44
2022-12-11T20:50:09.943Z,96007.48
2022-12-11T20:55:14.453Z,96007.48
2022-12-11T21:00:18.055Z,96000.66
2022-12-11T21:05:21.660Z,96006.28
2022-12-11T21:10:26.072Z,96006.28
2022-12-11T21:15:28.349Z,96011.16
2022-12-11T21:20:30.745Z,96011.16
2022-12-11T21:25:33.181Z,96013.39
2022-12-11T21:30:37.471Z,96013.39
2022-12-11T21:35:39.921Z,96029.91
2022-12-11T21:40:42.363Z,96029.91
2022-12-11T21:50:52.263Z,96025.7
2022-12-11T21:55:54.136Z,96025.7
2022-12-11T22:00:56.433Z,96025.7
2022-12-11T22:05:58.271Z,96025.7
2022-12-11T22:11:00.403Z,96025.7
2022-12-11T22:16:02.201Z,96025.7
2022-12-11T22:21:04.112Z,96025.7
2022-12-11T22:26:05.909Z,96025.7
2022-12-11T22:31:09.753Z,96025.7
2022-12-11T22:36:11.733Z,96025.7
